Time;durP1;ratioP1;P1;durP2;ratioP2;P2;SDS_P1;SDS_P2;PMS_P1;PMS_P2;Temp;Humidity;BMP_temperature;BMP_pressure;BME280_temperature;BME280_humidity;BME280_pressure;Samples;Min_cycle;Max_cycle;Signal;HPM_P1;HPM_P2
2020/06/26 00:00:04;;;;;;;2.54;2.34;;;;;;;21.46;54.56;100403.37;;;;-49
2020/06/26 00:03:04;;;;;;;2.54;2.34;;;;;;;21.46;54.59;100401.97;;;;-49
2020/06/26 00:06:04;;;;;;;2.47;2.27;;;;;;;21.46;54.58;100398.61;;;;-49
2020/06/26 00:09:04;;;;;;;2.60;2.40;;;;;;;21.45;54.57;100401.36;;;;-50
2020/06/26 00:12:04;;;;;;;2.45;2.22;;;;;;;21.45;54.56;100400.52;;;;-49
2020/06/26 00:15:04;;;;;;;2.61;2.41;;;;;;;21.45;54.57;100397.13;;;;-50
2020/06/26 00:18:04;;;;;;;3.12;2.30;;;;;;;21.44;54.62;100394.34;;;;-50
2020/06/26 00:21:04;;;;;;;2.38;2.18;;;;;;;21.43;54.61;100396.16;;;;-49
2020/06/26 00:24:04;;;;;;;2.35;2.15;;;;;;;21.43;54.61;100397.49;;;;-50
2020/06/26 00:27:04;;;;;;;2.53;2.33;;;;;;;21.43;54.58;100396.31;;;;-50
2020/06/26 00:30:04;;;;;;;2.50;2.30;;;;;;;21.42;54.61;100396.05;;;;-49
2020/06/26 00:33:04;;;;;;;2.29;2.09;;;;;;;21.42;54.61;100391.78;;;;-50
2020/06/26 00:36:04;;;;;;;2.51;2.31;;;;;;;21.42;54.58;100390.57;;;;-50
2020/06/26 00:39:10;;;;;;;2.50;2.30;;;;;;;21.42;54.61;100389.90;;;;-50
2020/06/26 00:42:04;;;;;;;2.90;2.38;;;;;;;21.41;54.60;100382.17;;;;-50
2020/06/26 00:45:04;;;;;;;2.50;2.30;;;;;;;21.41;54.60;100374.51;;;;-50
2020/06/26 00:48:04;;;;;;;2.51;2.31;;;;;;;21.40;54.59;100369.00;;;;-49
2020/06/26 00:51:04;;;;;;;2.42;2.22;;;;;;;21.40;54.57;100371.28;;;;-50
2020/06/26 00:54:04;;;;;;;2.59;2.39;;;;;;;21.40;54.58;100370.20;;;;-50
2020/06/26 00:57:04;;;;;;;2.49;2.29;;;;;;;21.40;54.60;100373.63;;;;-49
2020/06/26 01:00:04;;;;;;;2.27;2.10;;;;;;;21.40;54.59;100372.52;;;;-49
2020/06/26 01:03:04;;;;;;;2.50;2.30;;;;;;;21.40;54.55;100376.09;;;;-50
2020/06/26 01:06:04;;;;;;;2.59;2.39;;;;;;;21.40;54.54;100374.81;;;;-49
2020/06/26 01:09:04;;;;;;;2.49;2.29;;;;;;;21.41;54.58;100378.10;;;;-50
2020/06/26 01:12:04;;;;;;;2.30;2.20;;;;;;;21.40;54.57;100374.38;;;;-50
2020/06/26 01:15:04;;;;;;;2.58;2.38;;;;;;;21.40;54.59;100377.80;;;;-50
2020/06/26 01:18:04;;;;;;;2.33;2.13;;;;;;;21.39;54.56;100375.01;;;;-50
2020/06/26 01:21:04;;;;;;;2.30;2.10;;;;;;;21.39;54.55;100376.69;;;;-49
2020/06/26 01:24:04;;;;;;;2.50;2.30;;;;;;;21.39;54.58;100372.59;;;;-50
2020/06/26 01:27:04;;;;;;;2.59;2.39;;;;;;;21.38;54.53;100367.45;;;;-50
2020/06/26 01:30:04;;;;;;;2.50;2.30;;;;;;;21.38;54.53;100363.41;;;;-50
2020/06/26 01:33:04;;;;;;;2.55;2.35;;;;;;;21.38;54.55;100356.05;;;;-50
2020/06/26 01:36:04;;;;;;;2.49;2.29;;;;;;;21.38;54.54;100356.05;;;;-49
2020/06/26 01:39:04;;;;;;;2.47;2.27;;;;;;;21.37;54.52;100354.98;;;;-50
2020/06/26 01:42:04;;;;;;;2.26;2.15;;;;;;;21.37;54.52;100350.01;;;;-49
2020/06/26 01:45:04;;;;;;;2.39;2.20;;;;;;;21.38;54.57;100350.84;;;;-49
2020/06/26 01:48:04;;;;;;;2.38;2.19;;;;;;;21.36;54.53;100350.41;;;;-50
2020/06/26 01:51:04;;;;;;;2.50;2.30;;;;;;;21.36;54.50;100346.21;;;;-50
2020/06/26 01:54:04;;;;;;;2.47;2.20;;;;;;;21.37;54.54;100347.15;;;;-50
2020/06/26 01:57:04;;;;;;;2.65;2.15;;;;;;;21.36;54.56;100341.58;;;;-49
2020/06/26 02:00:04;;;;;;;2.45;2.25;;;;;;;21.36;54.50;100338.11;;;;-49
2020/06/26 02:03:04;;;;;;;2.46;2.25;;;;;;;21.36;54.53;100337.27;;;;-50
2020/06/26 02:06:04;;;;;;;2.59;2.31;;;;;;;21.35;54.52;100331.73;;;;-49
2020/06/26 02:09:04;;;;;;;2.52;2.32;;;;;;;21.36;54.53;100334.66;;;;-50
2020/06/26 02:12:04;;;;;;;2.41;2.21;;;;;;;21.34;54.50;100329.84;;;;-50
2020/06/26 02:15:04;;;;;;;2.33;2.11;;;;;;;21.33;54.52;100324.94;;;;-50
2020/06/26 02:18:04;;;;;;;2.47;2.27;;;;;;;21.35;54.52;100329.44;;;;-50
2020/06/26 02:21:04;;;;;;;2.65;2.19;;;;;;;21.34;54.52;100330.98;;;;-49
2020/06/26 02:24:04;;;;;;;2.48;2.28;;;;;;;21.34;54.53;100329.30;;;;-50
2020/06/26 02:27:04;;;;;;;2.37;2.17;;;;;;;21.34;54.49;100328.47;;;;-50
2020/06/26 02:30:04;;;;;;;2.45;2.25;;;;;;;21.33;54.50;100327.36;;;;-49
2020/06/26 02:33:04;;;;;;;2.25;2.11;;;;;;;21.33;54.51;100323.49;;;;-50
2020/06/26 02:36:04;;;;;;;2.43;2.23;;;;;;;21.33;54.53;100319.03;;;;-50
2020/06/26 02:39:04;;;;;;;2.72;2.20;;;;;;;21.33;54.50;100318.12;;;;-50
2020/06/26 02:42:04;;;;;;;2.15;2.05;;;;;;;21.32;54.54;100313.14;;;;-50
2020/06/26 02:45:04;;;;;;;2.37;2.17;;;;;;;21.32;54.51;100313.88;;;;-50
2020/06/26 02:48:04;;;;;;;2.40;2.20;;;;;;;21.32;54.52;100311.36;;;;-50
2020/06/26 02:51:04;;;;;;;2.21;2.11;;;;;;;21.32;54.53;100310.19;;;;-50
2020/06/26 02:54:04;;;;;;;2.49;2.29;;;;;;;21.31;54.50;100318.16;;;;-50
2020/06/26 02:57:04;;;;;;;2.28;2.08;;;;;;;21.31;54.52;100320.91;;;;-50
2020/06/26 03:00:04;;;;;;;2.47;2.27;;;;;;;21.31;54.53;100324.33;;;;-50
2020/06/26 03:03:04;;;;;;;2.33;2.15;;;;;;;21.31;54.52;100316.03;;;;-49
2020/06/26 03:06:04;;;;;;;2.29;2.09;;;;;;;21.31;54.55;100313.28;;;;-50
2020/06/26 03:09:04;;;;;;;2.40;2.20;;;;;;;21.31;54.56;100310.66;;;;-50
2020/06/26 03:12:04;;;;;;;2.20;2.01;;;;;;;21.29;54.51;100314.89;;;;-50
2020/06/26 03:15:04;;;;;;;2.17;2.07;;;;;;;21.30;54.55;100319.86;;;;-49
2020/06/26 03:18:04;;;;;;;2.45;2.25;;;;;;;21.29;54.53;100322.45;;;;-50
2020/06/26 03:21:04;;;;;;;2.10;2.00;;;;;;;21.30;54.53;100322.14;;;;-49
2020/06/26 03:24:04;;;;;;;2.26;2.11;;;;;;;21.29;54.50;100315.96;;;;-49
2020/06/26 03:27:04;;;;;;;2.30;2.10;;;;;;;21.29;54.54;100318.88;;;;-50
2020/06/26 03:30:04;;;;;;;2.15;2.05;;;;;;;21.29;54.55;100312.50;;;;-49
2020/06/26 03:33:03;;;;;;;2.21;2.05;;;;;;;21.29;54.51;100307.56;;;;-50
2020/06/26 03:36:04;;;;;;;2.17;2.07;;;;;;;21.29;54.50;100298.83;;;;-50
2020/06/26 03:39:04;;;;;;;2.39;2.11;;;;;;;21.29;54.53;100293.45;;;;-50
2020/06/26 03:42:04;;;;;;;2.23;2.13;;;;;;;21.28;54.51;100294.53;;;;-50
2020/06/26 03:45:04;;;;;;;1.93;1.83;;;;;;;21.28;54.54;100294.03;;;;-50
2020/06/26 03:48:04;;;;;;;2.28;2.10;;;;;;;21.28;54.55;100292.68;;;;-49
2020/06/26 03:51:04;;;;;;;2.16;2.06;;;;;;;21.27;54.52;100286.23;;;;-50
2020/06/26 03:54:04;;;;;;;2.41;2.21;;;;;;;21.29;54.53;100289.42;;;;-49
2020/06/26 03:57:04;;;;;;;2.06;1.96;;;;;;;21.28;54.57;100292.81;;;;-50
2020/06/26 04:00:04;;;;;;;2.26;2.15;;;;;;;21.27;54.56;100292.38;;;;-50
2020/06/26 04:03:04;;;;;;;2.20;2.00;;;;;;;21.28;54.54;100298.53;;;;-50
2020/06/26 04:06:04;;;;;;;2.27;2.07;;;;;;;21.27;54.56;100297.69;;;;-50
2020/06/26 04:09:04;;;;;;;2.15;2.05;;;;;;;21.27;54.58;100303.97;;;;-50
2020/06/26 04:12:04;;;;;;;2.66;2.32;;;;;;;21.23;54.39;100309.47;;;;-50
2020/06/26 04:15:03;;;;;;;3.45;2.80;;;;;;;21.13;53.98;100311.57;;;;-50
2020/06/26 04:18:04;;;;;;;4.15;3.05;;;;;;;21.05;53.82;100311.39;;;;-49
2020/06/26 04:21:04;;;;;;;2.99;2.79;;;;;;;21.01;53.71;100311.14;;;;-50
2020/06/26 04:24:04;;;;;;;4.25;3.04;;;;;;;20.97;53.86;100319.39;;;;-50
2020/06/26 04:27:04;;;;;;;3.27;2.97;;;;;;;20.95;53.99;100323.86;;;;-50
2020/06/26 04:30:04;;;;;;;5.15;3.19;;;;;;;20.92;54.07;100326.60;;;;-49
2020/06/26 04:33:04;;;;;;;3.39;3.05;;;;;;;20.93;54.11;100321.77;;;;-50
2020/06/26 04:36:04;;;;;;;4.04;3.02;;;;;;;20.87;54.17;100318.36;;;;-49
2020/06/26 04:39:04;;;;;;;5.75;3.04;;;;;;;20.85;54.33;100324.09;;;;-49
2020/06/26 04:42:04;;;;;;;3.54;2.99;;;;;;;20.80;54.33;100326.87;;;;-50
2020/06/26 04:45:04;;;;;;;6.64;3.55;;;;;;;20.88;54.29;100328.64;;;;-53
2020/06/26 04:48:04;;;;;;;4.15;2.97;;;;;;;20.93;54.29;100324.72;;;;-56
2020/06/26 04:51:04;;;;;;;3.78;2.81;;;;;;;20.98;54.34;100330.34;;;;-53
2020/06/26 04:54:03;;;;;;;3.13;2.83;;;;;;;21.01;54.44;100335.59;;;;-53
2020/06/26 04:57:04;;;;;;;4.62;2.70;;;;;;;21.05;54.44;100339.56;;;;-55
2020/06/26 05:00:04;;;;;;;2.96;2.68;;;;;;;21.07;54.46;100333.86;;;;-55
2020/06/26 05:03:04;;;;;;;2.98;2.73;;;;;;;21.10;54.44;100334.74;;;;-53
2020/06/26 05:06:04;;;;;;;2.85;2.65;;;;;;;21.12;54.49;100334.95;;;;-53
2020/06/26 05:09:04;;;;;;;3.59;2.63;;;;;;;21.14;54.46;100330.38;;;;-53
2020/06/26 05:12:04;;;;;;;4.27;2.60;;;;;;;21.16;54.39;100325.75;;;;-51
2020/06/26 05:15:04;;;;;;;2.97;2.65;;;;;;;21.16;54.31;100328.87;;;;-51
2020/06/26 05:18:04;;;;;;;3.77;2.55;;;;;;;21.16;54.28;100329.55;;;;-51
2020/06/26 05:21:04;;;;;;;3.61;2.57;;;;;;;21.17;54.31;100330.92;;;;-50
2020/06/26 05:24:04;;;;;;;2.89;2.69;;;;;;;21.16;54.35;100326.70;;;;-51
2020/06/26 05:27:04;;;;;;;3.06;2.63;;;;;;;21.17;54.30;100324.11;;;;-51
2020/06/26 05:30:03;;;;;;;2.80;2.60;;;;;;;21.17;54.28;100323.77;;;;-51
2020/06/26 05:33:04;;;;;;;2.91;2.59;;;;;;;21.17;54.28;100325.11;;;;-51
2020/06/26 05:36:04;;;;;;;2.69;2.49;;;;;;;21.16;54.28;100325.85;;;;-51
2020/06/26 05:39:04;;;;;;;2.85;2.61;;;;;;;21.17;54.29;100326.96;;;;-51
2020/06/26 05:42:04;;;;;;;2.62;2.42;;;;;;;21.17;54.33;100325.38;;;;-51
2020/06/26 05:45:04;;;;;;;3.23;2.66;;;;;;;21.16;54.31;100320.31;;;;-51
2020/06/26 05:48:04;;;;;;;2.89;2.44;;;;;;;21.16;54.28;100316.05;;;;-51
2020/06/26 05:51:03;;;;;;;3.46;2.61;;;;;;;21.17;54.31;100317.99;;;;-51
2020/06/26 05:54:04;;;;;;;2.75;2.55;;;;;;;21.16;54.30;100315.10;;;;-51
2020/06/26 05:57:04;;;;;;;2.79;2.53;;;;;;;21.16;54.31;100319.57;;;;-51
2020/06/26 06:00:04;;;;;;;2.89;2.60;;;;;;;21.17;54.32;100329.18;;;;-50
2020/06/26 06:03:04;;;;;;;2.62;2.42;;;;;;;21.16;54.32;100332.00;;;;-51
2020/06/26 06:06:04;;;;;;;2.73;2.53;;;;;;;21.16;54.31;100332.91;;;;-51
2020/06/26 06:09:03;;;;;;;2.59;2.39;;;;;;;21.17;54.30;100330.16;;;;-51
2020/06/26 06:12:03;;;;;;;2.95;2.48;;;;;;;21.16;54.29;100325.62;;;;-51
2020/06/26 06:15:04;;;;;;;2.60;2.40;;;;;;;21.17;54.31;100322.59;;;;-50
2020/06/26 06:18:04;;;;;;;2.63;2.43;;;;;;;21.16;54.31;100319.23;;;;-51
2020/06/26 06:21:04;;;;;;;2.47;2.28;;;;;;;21.16;54.30;100324.41;;;;-51
2020/06/26 06:24:04;;;;;;;2.63;2.41;;;;;;;21.16;54.33;100319.47;;;;-51
2020/06/26 06:27:04;;;;;;;2.60;2.40;;;;;;;21.16;54.31;100321.08;;;;-52
2020/06/26 06:31:04;;;;;;;2.63;2.43;;;;;;;21.16;54.31;100320.64;;;;-51
2020/06/26 06:34:04;;;;;;;2.85;2.57;;;;;;;21.16;54.30;100317.45;;;;-51
2020/06/26 06:37:04;;;;;;;2.67;2.30;;;;;;;21.16;54.32;100319.23;;;;-51
2020/06/26 06:40:04;;;;;;;2.60;2.40;;;;;;;21.15;54.28;100311.48;;;;-51
2020/06/26 06:43:04;;;;;;;2.47;2.27;;;;;;;21.16;54.31;100313.77;;;;-51
2020/06/26 06:46:04;;;;;;;2.60;2.40;;;;;;;21.15;54.29;100317.59;;;;-51
2020/06/26 06:49:04;;;;;;;2.73;2.53;;;;;;;21.16;54.27;100314.59;;;;-51
2020/06/26 06:52:04;;;;;;;2.83;2.59;;;;;;;21.15;54.30;100302.91;;;;-51
2020/06/26 06:55:03;;;;;;;2.49;2.29;;;;;;;21.15;54.30;100300.63;;;;-51
2020/06/26 06:58:04;;;;;;;2.61;2.41;;;;;;;21.15;54.29;100299.45;;;;-51
2020/06/26 07:01:04;;;;;;;2.51;2.31;;;;;;;21.16;54.29;100299.48;;;;-51
2020/06/26 07:04:04;;;;;;;2.51;2.31;;;;;;;21.15;54.28;100305.59;;;;-51
2020/06/26 07:07:04;;;;;;;11.16;2.61;;;;;;;21.17;54.52;100304.45;;;;-50
2020/06/26 07:10:04;;;;;;;7.71;2.47;;;;;;;21.16;54.48;100302.34;;;;-51
2020/06/26 07:13:04;;;;;;;6.04;2.56;;;;;;;21.17;54.38;100305.00;;;;-51
2020/06/26 07:16:04;;;;;;;6.17;2.33;;;;;;;21.16;54.30;100295.95;;;;-50
2020/06/26 07:19:04;;;;;;;3.74;2.23;;;;;;;21.16;54.29;100289.08;;;;-50
2020/06/26 07:22:04;;;;;;;2.49;2.29;;;;;;;21.15;54.28;100291.05;;;;-50
2020/06/26 07:25:04;;;;;;;4.83;2.41;;;;;;;21.16;54.30;100292.20;;;;-50
2020/06/26 07:28:04;;;;;;;2.50;2.30;;;;;;;21.16;54.27;100296.53;;;;-50
2020/06/26 07:31:04;;;;;;;3.75;2.21;;;;;;;21.15;54.34;100293.91;;;;-51
2020/06/26 07:34:04;;;;;;;3.01;2.20;;;;;;;21.15;54.30;100293.23;;;;-50
2020/06/26 07:37:04;;;;;;;2.93;2.39;;;;;;;21.15;54.29;100293.91;;;;-50
2020/06/26 07:40:04;;;;;;;3.54;2.33;;;;;;;21.16;54.29;100294.62;;;;-51
2020/06/26 07:43:04;;;;;;;5.15;2.40;;;;;;;21.17;54.59;100292.91;;;;-51
2020/06/26 07:46:04;;;;;;;3.95;2.47;;;;;;;21.18;54.89;100290.59;;;;-53
2020/06/26 07:49:04;;;;;;;2.49;2.29;;;;;;;21.20;54.90;100287.09;;;;-51
2020/06/26 07:52:04;;;;;;;4.53;2.14;;;;;;;21.21;54.71;100290.42;;;;-51
2020/06/26 07:55:04;;;;;;;2.44;2.13;;;;;;;21.22;54.66;100282.56;;;;-52
2020/06/26 07:58:04;;;;;;;4.55;2.67;;;;;;;21.22;54.65;100285.98;;;;-50
2020/06/26 08:01:04;;;;;;;3.06;2.40;;;;;;;21.21;54.68;100288.24;;;;-51
2020/06/26 08:04:03;;;;;;;2.47;2.27;;;;;;;21.22;54.67;100284.08;;;;-51
2020/06/26 08:07:04;;;;;;;2.52;2.16;;;;;;;21.22;54.69;100283.47;;;;-50
2020/06/26 08:10:04;;;;;;;3.01;2.37;;;;;;;21.22;54.68;100278.94;;;;-51
2020/06/26 08:13:04;;;;;;;2.55;2.35;;;;;;;21.22;54.69;100272.72;;;;-50
2020/06/26 08:16:04;;;;;;;2.71;2.46;;;;;;;21.23;54.69;100274.09;;;;-51
2020/06/26 08:19:04;;;;;;;3.63;2.33;;;;;;;21.22;54.68;100276.69;;;;-52
2020/06/26 08:22:03;;;;;;;2.53;2.33;;;;;;;21.24;54.68;100277.66;;;;-52
2020/06/26 08:25:04;;;;;;;2.20;2.01;;;;;;;21.24;54.70;100276.98;;;;-51
2020/06/26 08:28:04;;;;;;;2.83;2.25;;;;;;;21.23;54.67;100271.85;;;;-51
2020/06/26 08:31:04;;;;;;;2.42;2.22;;;;;;;21.24;54.68;100264.56;;;;-50
2020/06/26 08:34:04;;;;;;;2.69;2.24;;;;;;;21.24;54.92;100258.18;;;;-55
2020/06/26 08:37:04;;;;;;;2.86;2.29;;;;;;;21.27;55.08;100259.62;;;;-54
2020/06/26 08:40:04;;;;;;;3.37;2.27;;;;;;;21.28;55.31;100253.28;;;;-52
2020/06/26 08:43:03;;;;;;;3.84;2.36;;;;;;;21.30;55.34;100253.58;;;;-51
2020/06/26 08:46:03;;;;;;;2.95;2.39;;;;;;;21.31;55.39;100247.09;;;;-52
2020/06/26 08:49:04;;;;;;;3.00;2.31;;;;;;;21.33;55.61;100251.94;;;;-49
2020/06/26 08:52:04;;;;;;;2.82;2.38;;;;;;;21.34;55.58;100251.23;;;;-54
2020/06/26 08:55:04;;;;;;;2.50;2.30;;;;;;;21.36;55.55;100246.05;;;;-53
2020/06/26 08:58:04;;;;;;;5.35;2.35;;;;;;;21.38;55.70;100249.72;;;;-60
2020/06/26 09:01:04;;;;;;;3.86;2.48;;;;;;;21.39;55.58;100249.11;;;;-55
2020/06/26 09:04:04;;;;;;;4.56;2.33;;;;;;;21.41;55.65;100241.75;;;;-56
2020/06/26 09:07:04;;;;;;;3.94;2.24;;;;;;;21.42;55.51;100240.55;;;;-51
2020/06/26 09:10:04;;;;;;;5.26;2.27;;;;;;;21.43;55.64;100249.24;;;;-56
2020/06/26 09:13:04;;;;;;;3.41;2.35;;;;;;;21.46;55.92;100246.22;;;;-48
2020/06/26 09:16:04;;;;;;;4.79;2.31;;;;;;;21.45;55.38;100241.81;;;;-48
2020/06/26 09:19:04;;;;;;;4.93;2.38;;;;;;;21.46;55.43;100239.73;;;;-62
2020/06/26 09:22:03;;;;;;;5.81;2.48;;;;;;;21.47;55.58;100254.05;;;;-50
2020/06/26 09:25:04;;;;;;;5.28;2.43;;;;;;;21.47;55.50;100254.81;;;;-52
2020/06/26 09:28:04;;;;;;;4.39;2.44;;;;;;;21.48;55.51;100252.50;;;;-51
2020/06/26 09:31:04;;;;;;;3.99;2.47;;;;;;;21.49;55.56;100251.80;;;;-50
2020/06/26 09:34:04;;;;;;;4.76;2.34;;;;;;;21.50;55.51;100254.25;;;;-52
2020/06/26 09:37:04;;;;;;;7.07;2.40;;;;;;;21.51;55.48;100254.34;;;;-52
2020/06/26 09:40:04;;;;;;;3.93;2.40;;;;;;;21.51;55.34;100254.55;;;;-53
2020/06/26 09:43:04;;;;;;;3.77;2.45;;;;;;;21.53;55.39;100260.06;;;;-54
2020/06/26 09:46:04;;;;;;;8.04;2.33;;;;;;;21.54;55.43;100259.16;;;;-51
2020/06/26 09:49:04;;;;;;;5.63;2.60;;;;;;;21.56;55.23;100267.22;;;;-51
2020/06/26 09:52:04;;;;;;;4.44;2.32;;;;;;;21.56;55.52;100262.00;;;;-54
2020/06/26 09:55:03;;;;;;;4.62;2.33;;;;;;;21.58;55.34;100262.58;;;;-51
2020/06/26 09:58:03;;;;;;;3.80;2.55;;;;;;;21.58;55.34;100259.22;;;;-45
2020/06/26 10:01:04;;;;;;;5.47;2.63;;;;;;;21.58;55.33;100255.52;;;;-49
2020/06/26 10:04:04;;;;;;;6.75;2.55;;;;;;;21.60;55.35;100253.43;;;;-57
2020/06/26 10:07:04;;;;;;;5.00;2.57;;;;;;;21.60;55.29;100249.66;;;;-50
2020/06/26 10:10:04;;;;;;;6.62;2.41;;;;;;;21.61;55.25;100240.52;;;;-51
2020/06/26 10:13:04;;;;;;;7.08;2.46;;;;;;;21.63;55.25;100239.48;;;;-47
2020/06/26 10:16:04;;;;;;;7.44;2.49;;;;;;;21.63;55.23;100232.99;;;;-50
2020/06/26 10:19:04;;;;;;;5.83;2.58;;;;;;;21.64;55.20;100232.48;;;;-50
2020/06/26 10:22:06;;;;;;;6.13;2.44;;;;;;;21.66;55.10;100239.14;;;;-53
2020/06/26 10:25:06;;;;;;;3.24;2.41;;;;;;;21.67;55.10;100239.10;;;;-51
2020/06/26 10:28:04;;;;;;;4.21;2.43;;;;;;;21.68;55.12;100231.47;;;;-57
2020/06/26 10:31:04;;;;;;;4.67;2.41;;;;;;;21.69;55.18;100232.55;;;;-45
2020/06/26 10:34:03;;;;;;;5.81;2.43;;;;;;;21.69;55.14;100237.82;;;;-43
2020/06/26 10:37:03;;;;;;;3.61;2.45;;;;;;;21.69;55.18;100231.20;;;;-44
2020/06/26 10:40:04;;;;;;;4.53;2.63;;;;;;;21.68;55.11;100224.01;;;;-44
2020/06/26 10:43:04;;;;;;;6.03;2.41;;;;;;;21.67;55.14;100212.48;;;;-44
2020/06/26 10:46:04;;;;;;;5.38;2.49;;;;;;;21.67;55.04;100207.17;;;;-44
2020/06/26 10:49:04;;;;;;;5.35;2.41;;;;;;;21.68;55.16;100204.11;;;;-53
2020/06/26 10:52:04;;;;;;;5.39;2.57;;;;;;;21.68;55.10;100195.94;;;;-53
2020/06/26 10:55:04;;;;;;;4.61;2.41;;;;;;;21.70;54.96;100193.55;;;;-48
2020/06/26 10:58:04;;;;;;;7.52;2.53;;;;;;;21.72;55.31;100194.72;;;;-46
2020/06/26 11:01:04;;;;;;;5.71;2.39;;;;;;;21.70;55.02;100192.98;;;;-45
2020/06/26 11:04:04;;;;;;;6.39;2.61;;;;;;;21.69;55.06;100192.95;;;;-46
2020/06/26 11:07:04;;;;;;;4.41;2.38;;;;;;;21.69;55.08;100192.61;;;;-46
2020/06/26 11:10:04;;;;;;;3.86;2.50;;;;;;;21.69;55.07;100184.27;;;;-46
2020/06/26 11:13:04;;;;;;;3.82;2.30;;;;;;;21.68;55.07;100181.42;;;;-46
2020/06/26 11:16:03;;;;;;;3.93;2.45;;;;;;;21.67;55.02;100183.41;;;;-46
2020/06/26 11:19:03;;;;;;;5.27;2.33;;;;;;;21.68;54.98;100184.34;;;;-47
2020/06/26 11:22:04;;;;;;;3.39;2.09;;;;;;;21.67;54.96;100178.27;;;;-46
2020/06/26 11:25:04;;;;;;;4.77;2.17;;;;;;;21.67;54.91;100172.98;;;;-47
2020/06/26 11:28:04;;;;;;;5.16;2.37;;;;;;;21.67;54.92;100162.20;;;;-46
2020/06/26 11:31:04;;;;;;;4.31;2.22;;;;;;;21.66;54.95;100164.22;;;;-47
2020/06/26 11:34:04;;;;;;;3.37;2.49;;;;;;;21.67;54.93;100157.66;;;;-46
2020/06/26 11:37:04;;;;;;;5.34;2.20;;;;;;;21.68;54.98;100160.31;;;;-50
2020/06/26 11:40:04;;;;;;;3.47;2.35;;;;;;;21.69;54.96;100158.16;;;;-50
2020/06/26 11:43:04;;;;;;;5.16;2.23;;;;;;;21.70;54.93;100157.17;;;;-50
2020/06/26 11:46:04;;;;;;;4.50;2.41;;;;;;;21.72;54.94;100152.53;;;;-49
2020/06/26 11:49:04;;;;;;;5.39;2.47;;;;;;;21.73;54.96;100152.16;;;;-46
2020/06/26 11:52:03;;;;;;;4.55;2.24;;;;;;;21.74;55.00;100146.95;;;;-46
2020/06/26 11:55:03;;;;;;;4.83;2.35;;;;;;;21.75;54.95;100142.27;;;;-46
2020/06/26 11:58:04;;;;;;;3.22;2.28;;;;;;;21.75;55.03;100140.19;;;;-48
2020/06/26 12:01:04;;;;;;;5.17;2.31;;;;;;;21.77;54.92;100140.92;;;;-44
2020/06/26 12:04:03;;;;;;;3.56;2.25;;;;;;;21.78;54.96;100136.64;;;;-47
2020/06/26 12:07:04;;;;;;;5.53;2.21;;;;;;;21.79;55.04;100131.06;;;;-51
2020/06/26 12:10:04;;;;;;;3.79;2.29;;;;;;;21.80;54.99;100136.47;;;;-50
2020/06/26 12:13:05;;;;;;;3.99;2.18;;;;;;;21.79;55.07;100132.41;;;;-48
2020/06/26 12:16:04;;;;;;;5.49;2.25;;;;;;;21.80;55.05;100128.56;;;;-44
2020/06/26 12:19:04;;;;;;;4.23;2.27;;;;;;;21.81;55.03;100130.02;;;;-45
2020/06/26 12:22:04;;;;;;;5.97;2.27;;;;;;;21.81;55.02;100122.78;;;;-48
2020/06/26 12:25:04;;;;;;;4.75;2.23;;;;;;;21.82;54.96;100118.44;;;;-49
2020/06/26 12:28:03;;;;;;;3.91;2.42;;;;;;;21.83;55.00;100116.52;;;;-50
2020/06/26 12:31:04;;;;;;;3.01;2.13;;;;;;;21.83;55.02;100119.41;;;;-49
2020/06/26 12:34:04;;;;;;;2.99;2.21;;;;;;;21.84;54.95;100116.81;;;;-46
2020/06/26 12:37:03;;;;;;;3.52;2.19;;;;;;;21.85;55.06;100124.75;;;;-52
2020/06/26 12:40:04;;;;;;;3.78;2.41;;;;;;;21.86;55.02;100113.18;;;;-49
2020/06/26 12:43:03;;;;;;;3.13;2.36;;;;;;;21.87;55.08;100109.84;;;;-47
2020/06/26 12:46:03;;;;;;;3.40;2.23;;;;;;;21.87;54.99;100109.24;;;;-50
2020/06/26 12:49:04;;;;;;;4.09;2.26;;;;;;;21.88;55.08;100105.84;;;;-48
2020/06/26 12:52:04;;;;;;;3.96;2.30;;;;;;;21.89;55.05;100098.81;;;;-48
2020/06/26 12:55:04;;;;;;;4.17;2.27;;;;;;;21.88;55.08;100094.34;;;;-49
2020/06/26 12:58:04;;;;;;;4.89;2.34;;;;;;;21.90;54.98;100091.27;;;;-48
2020/06/26 13:01:04;;;;;;;3.97;2.45;;;;;;;21.90;54.96;100094.46;;;;-50
2020/06/26 13:04:04;;;;;;;4.22;2.24;;;;;;;21.90;55.00;100088.24;;;;-48
2020/06/26 13:07:04;;;;;;;3.39;2.16;;;;;;;21.91;55.03;100085.55;;;;-51
2020/06/26 13:10:04;;;;;;;5.19;2.33;;;;;;;21.90;55.02;100086.30;;;;-45
2020/06/26 13:13:04;;;;;;;3.39;2.11;;;;;;;21.91;54.98;100087.50;;;;-46
2020/06/26 13:16:04;;;;;;;6.37;2.57;;;;;;;21.93;55.11;100083.79;;;;-50
2020/06/26 13:19:05;;;;;;;8.59;2.70;;;;;;;21.94;54.98;100081.60;;;;-47
2020/06/26 13:22:04;;;;;;;6.48;2.28;;;;;;;21.94;54.85;100078.41;;;;-47
2020/06/26 13:25:04;;;;;;;5.76;2.43;;;;;;;21.92;55.01;100071.55;;;;-47
2020/06/26 13:28:04;;;;;;;3.74;2.41;;;;;;;21.91;55.02;100072.91;;;;-47
2020/06/26 13:31:04;;;;;;;3.51;2.43;;;;;;;21.91;54.96;100068.73;;;;-47
2020/06/26 13:34:04;;;;;;;4.39;2.35;;;;;;;21.90;54.95;100070.59;;;;-47
2020/06/26 13:37:04;;;;;;;4.46;2.34;;;;;;;21.89;54.89;100065.78;;;;-48
2020/06/26 13:40:05;;;;;;;4.14;2.34;;;;;;;21.88;54.83;100064.24;;;;-47
2020/06/26 13:43:05;;;;;;;4.07;2.34;;;;;;;21.89;54.79;100065.08;;;;-47
2020/06/26 13:46:04;;;;;;;4.49;2.30;;;;;;;21.88;54.71;100057.02;;;;-47
2020/06/26 13:49:04;;;;;;;3.49;2.15;;;;;;;21.88;54.71;100051.20;;;;-47
2020/06/26 13:52:04;;;;;;;5.14;2.39;;;;;;;21.88;54.73;100052.88;;;;-47
2020/06/26 13:55:04;;;;;;;5.43;2.56;;;;;;;21.87;54.68;100042.33;;;;-47
2020/06/26 13:58:07;;;;;;;3.86;2.32;;;;;;;21.87;54.74;100036.72;;;;-47
2020/06/26 14:01:05;;;;;;;4.25;2.33;;;;;;;21.87;54.64;100036.88;;;;-47
2020/06/26 14:04:05;;;;;;;4.38;2.48;;;;;;;21.87;54.65;100033.52;;;;-48
2020/06/26 14:07:04;;;;;;;4.03;2.27;;;;;;;21.86;54.68;100028.69;;;;-47
2020/06/26 14:10:04;;;;;;;4.63;2.37;;;;;;;21.86;54.63;100028.18;;;;-47
2020/06/26 14:13:04;;;;;;;4.15;2.07;;;;;;;21.85;54.59;100035.38;;;;-49
2020/06/26 14:16:04;;;;;;;7.43;2.43;;;;;;;21.84;54.67;100036.30;;;;-48
2020/06/26 14:19:04;;;;;;;4.06;2.36;;;;;;;21.85;54.65;100031.38;;;;-47
2020/06/26 14:22:04;;;;;;;4.85;2.51;;;;;;;21.86;54.63;100035.52;;;;-46
2020/06/26 14:25:04;;;;;;;3.01;2.27;;;;;;;21.86;54.76;100033.16;;;;-45
2020/06/26 14:28:04;;;;;;;7.48;2.45;;;;;;;21.85;54.67;100034.20;;;;-45
2020/06/26 14:31:04;;;;;;;6.73;2.29;;;;;;;21.83;54.75;100047.20;;;;-45
2020/06/26 14:34:04;;;;;;;4.89;2.29;;;;;;;21.84;54.77;100059.39;;;;-45
2020/06/26 14:37:04;;;;;;;4.43;2.58;;;;;;;21.83;54.78;100063.59;;;;-46
2020/06/26 14:40:04;;;;;;;5.03;2.32;;;;;;;21.83;54.79;100069.78;;;;-45
2020/06/26 14:43:04;;;;;;;3.62;2.41;;;;;;;21.82;54.78;100068.28;;;;-45
2020/06/26 14:46:04;;;;;;;5.28;2.40;;;;;;;21.82;54.79;100073.49;;;;-45
2020/06/26 14:49:04;;;;;;;4.95;2.62;;;;;;;21.83;54.91;100077.72;;;;-44
2020/06/26 14:52:04;;;;;;;5.11;2.48;;;;;;;21.84;54.92;100074.29;;;;-48
2020/06/26 14:55:04;;;;;;;4.23;2.39;;;;;;;21.84;54.90;100065.48;;;;-49
2020/06/26 14:58:04;;;;;;;3.66;2.30;;;;;;;21.85;54.89;100058.41;;;;-47
2020/06/26 15:01:04;;;;;;;5.57;2.43;;;;;;;21.86;54.97;100058.38;;;;-47
2020/06/26 15:04:04;;;;;;;3.31;2.47;;;;;;;21.86;54.97;100055.18;;;;-49
2020/06/26 15:07:04;;;;;;;2.63;2.40;;;;;;;21.87;54.95;100049.66;;;;-49
2020/06/26 15:10:04;;;;;;;4.67;2.49;;;;;;;21.88;55.02;100045.15;;;;-56
2020/06/26 15:13:04;;;;;;;5.04;2.46;;;;;;;21.89;55.05;100037.95;;;;-44
2020/06/26 15:16:03;;;;;;;3.32;2.39;;;;;;;21.91;55.03;100041.84;;;;-55
2020/06/26 15:19:04;;;;;;;3.53;2.38;;;;;;;21.90;55.04;100038.58;;;;-52
2020/06/26 15:22:04;;;;;;;6.69;2.43;;;;;;;21.92;55.05;100035.00;;;;-50
2020/06/26 15:25:04;;;;;;;3.61;2.57;;;;;;;21.93;55.06;100033.69;;;;-46
2020/06/26 15:28:04;;;;;;;2.91;2.20;;;;;;;21.93;55.03;100045.96;;;;-48
2020/06/26 15:31:04;;;;;;;4.48;2.55;;;;;;;21.95;55.16;100051.37;;;;-54
2020/06/26 15:34:04;;;;;;;3.61;2.53;;;;;;;21.95;55.06;100043.83;;;;-49
2020/06/26 15:37:04;;;;;;;4.94;2.51;;;;;;;21.97;55.17;100045.30;;;;-44
2020/06/26 15:40:04;;;;;;;4.01;2.36;;;;;;;21.97;55.11;100046.08;;;;-47
2020/06/26 15:43:04;;;;;;;4.04;2.51;;;;;;;21.98;54.99;100053.83;;;;-44
2020/06/26 15:46:04;;;;;;;3.03;2.27;;;;;;;21.98;54.98;100051.89;;;;-50
2020/06/26 15:49:03;;;;;;;3.33;2.47;;;;;;;21.98;55.09;100067.72;;;;-46
2020/06/26 15:52:03;;;;;;;2.97;2.61;;;;;;;21.99;55.01;100071.35;;;;-48
2020/06/26 15:55:04;;;;;;;2.86;2.52;;;;;;;21.99;55.04;100069.73;;;;-47
2020/06/26 15:58:04;;;;;;;3.25;2.41;;;;;;;22.00;55.03;100081.27;;;;-49
2020/06/26 16:01:04;;;;;;;7.68;2.81;;;;;;;22.01;54.91;100074.56;;;;-48
2020/06/26 16:04:04;;;;;;;5.85;2.71;;;;;;;22.00;54.91;100072.05;;;;-48
2020/06/26 16:07:03;;;;;;;2.93;2.63;;;;;;;22.00;54.90;100070.37;;;;-49
2020/06/26 16:10:04;;;;;;;3.57;2.53;;;;;;;22.00;54.94;100078.17;;;;-48
2020/06/26 16:13:04;;;;;;;6.37;2.84;;;;;;;21.99;54.95;100082.92;;;;-49
2020/06/26 16:16:05;;;;;;;7.23;3.02;;;;;;;22.08;54.82;100083.68;;;;-51
2020/06/26 16:19:04;;;;;;;3.87;2.91;;;;;;;22.06;54.73;100078.95;;;;-53
2020/06/26 16:22:04;;;;;;;6.03;3.10;;;;;;;22.06;54.66;100072.12;;;;-50
2020/06/26 16:25:04;;;;;;;8.08;3.27;;;;;;;22.06;54.73;100075.72;;;;-49
2020/06/26 16:28:03;;;;;;;3.91;2.91;;;;;;;22.05;54.72;100078.75;;;;-51
2020/06/26 16:31:03;;;;;;;6.62;3.27;;;;;;;22.05;54.71;100080.84;;;;-45
2020/06/26 16:37:51;;;;;;;3.87;3.25;;;;;;;22.00;64.04;99960.05;;;;-54
2020/06/26 16:40:51;;;;;;;4.12;3.30;;;;;;;21.87;64.30;99972.92;;;;-45
2020/06/26 16:43:51;;;;;;;4.59;3.59;;;;;;;21.83;64.47;99983.49;;;;-50
2020/06/26 16:46:51;;;;;;;5.47;3.38;;;;;;;21.80;64.57;99994.60;;;;-53